Monticello, AR

5:02 AM CDT on October 02, 2014 (GMT -0500)
Monticello Municipal-Ellis | Change Station
CLOSE
Current Station
Airport
Location: Monticello,
Elevation: 269 ft
Nearby Weather Stations

Elev 269 ft 33.64 °N, 91.76 °W | Updated 9 minutes ago

Overcast
Overcast
76 °F
Feels Like 76 °F
N
6
Wind Variable Wind from South

Today
High -- | Low -- °F
--% Chance of Precip.
Yesterday
High -- | Low -- °F
Precip. -- in
7:02 AM 6:50 PM
First Quarter, 57% visible
Pressure 29.88 in
Visibility 10.0 miles
Clouds Scattered Clouds 800 ft
Overcast 1500 ft
Dew Point 72 °F
Humidity 87%
Rainfall 0.00 in
Snow Depth Not available.
UV 0 out of 12
Pollen 8.60 out of 12
Air Quality Not available.
Flu Activity Not available.
METAR KLLQ 020953Z AUTO 17005KT 10SM SCT008 OVC015 24/22 A2989 RMK AO2 SLP118 T02440222

More Conditions Fewer Conditions

Pressure 29.88 in
Visibility 10.0 miles
Clouds Scattered Clouds 800 ft
Overcast 1500 ft
Dew Point 72 °F
Humidity 87%
Rainfall 0.00 in
Snow Depth Not available.
UV 0 out of 12
Pollen 8.60 out of 12
Air Quality Not available.
Flu Activity Not available.
METAR KLLQ 020953Z AUTO 17005KT 10SM SCT008 OVC015 24/22 A2989 RMK AO2 SLP118 T02440222

More Conditions Fewer Conditions

10-Day Weather Forecast

Almanac

Astronomy

Oct. 02, 2014 Rise Set
Actual Time 7:02 AM CDT 6:50 PM CDT
Civil Twilight 6:37 AM CDT 7:15 PM CDT
Nautical Twilight 6:08 AM CDT 7:43 PM CDT
Astronomical Twilight 5:39 AM CDT 8:12 PM CDT
Moon 2:41 PM CDT 12:35 AM CDT
Length of Visible Light 12h 37m
Length of Day
11h 47m
Tomorrow will be 2m 4s shorter.
First Quarter, 57% of the Moon is Illuminated
Today
First Quarter
Oct 8
Full
Oct 15
Last Quarter
Oct 23
New
Oct 30
First Quarter

Today's Extremes

State Highs State Lows

Community

WunderPhotos

Upload Photos

1,758,209 photos uploaded!

WunderBlogs® & News

Nearby

Snow Depth

Station Depth Elevation
No new snow has been reported.

Earthquake Activity

City Distance Mag. Time & Date
No recent earthquake activity has been reported nearby.
Minimum magnitude displayed is 2.5.

Coastal Water Temperatures

Place Temperature
No Stations Reporting

Nearby Weather Stations